sensor_id;sensor_type;location;lat;lon;timestamp;pressure;altitude;pressure_sealevel;temperature;humidity
65359;BME280;52491;45.900;6.346;2023-04-06T00:01:36;93916.47;;;23.18;22.71
65359;BME280;52491;45.900;6.346;2023-04-06T00:04:01;93915.69;;;23.17;22.74
65359;BME280;52491;45.900;6.346;2023-04-06T00:06:27;93906.91;;;23.17;22.68
65359;BME280;52491;45.900;6.346;2023-04-06T00:08:53;93919.41;;;23.16;22.72
65359;BME280;52491;45.900;6.346;2023-04-06T00:11:19;93917.00;;;23.15;22.84
65359;BME280;52491;45.900;6.346;2023-04-06T00:13:45;93917.78;;;23.15;22.82
65359;BME280;52491;45.900;6.346;2023-04-06T00:16:11;93915.13;;;23.15;22.68
65359;BME280;52491;45.900;6.346;2023-04-06T00:18:36;93914.88;;;23.17;22.43
65359;BME280;52491;45.900;6.346;2023-04-06T00:21:03;93919.41;;;23.16;22.68
65359;BME280;52491;45.900;6.346;2023-04-06T00:23:28;93924.72;;;23.16;22.61
65359;BME280;52491;45.900;6.346;2023-04-06T00:25:54;93915.69;;;23.17;22.55
65359;BME280;52491;45.900;6.346;2023-04-06T00:28:20;93919.41;;;23.16;22.54
65359;BME280;52491;45.900;6.346;2023-04-06T00:30:51;93914.88;;;23.17;22.61
65359;BME280;52491;45.900;6.346;2023-04-06T00:33:22;93924.72;;;23.16;22.55
65359;BME280;52491;45.900;6.346;2023-04-06T00:35:48;93918.84;;;23.14;22.48
65359;BME280;52491;45.900;6.346;2023-04-06T00:38:14;93914.31;;;23.15;22.50
65359;BME280;52491;45.900;6.346;2023-04-06T00:40:40;93908.44;;;23.13;22.47
65359;BME280;52491;45.900;6.346;2023-04-06T00:43:06;93902.09;;;23.14;22.65
65359;BME280;52491;45.900;6.346;2023-04-06T00:45:32;93903.69;;;23.15;22.66
65359;BME280;52491;45.900;6.346;2023-04-06T00:47:58;93909.25;;;23.13;22.50
65359;BME280;52491;45.900;6.346;2023-04-06T00:50:24;93904.50;;;23.15;22.51
65359;BME280;52491;45.900;6.346;2023-04-06T00:52:50;93906.91;;;23.17;22.76
65359;BME280;52491;45.900;6.346;2023-04-06T00:55:16;93902.38;;;23.17;22.61
65359;BME280;52491;45.900;6.346;2023-04-06T00:57:42;93904.25;;;23.17;22.45
65359;BME280;52491;45.900;6.346;2023-04-06T01:00:08;93905.84;;;23.18;22.48
65359;BME280;52491;45.900;6.346;2023-04-06T01:02:33;93900.78;;;23.16;22.25
65359;BME280;52491;45.900;6.346;2023-04-06T01:04:59;93902.38;;;23.17;22.49
65359;BME280;52491;45.900;6.346;2023-04-06T01:07:25;93899.97;;;23.16;22.51
65359;BME280;52491;45.900;6.346;2023-04-06T01:09:53;93899.16;;;23.15;22.39
65359;BME280;52491;45.900;6.346;2023-04-06T01:12:19;93899.97;;;23.16;22.42
65359;BME280;52491;45.900;6.346;2023-04-06T01:14:44;93894.13;;;23.14;22.43
65359;BME280;52491;45.900;6.346;2023-04-06T01:17:10;93894.13;;;23.14;22.33
65359;BME280;52491;45.900;6.346;2023-04-06T01:19:36;93889.59;;;23.14;22.61
65359;BME280;52491;45.900;6.346;2023-04-06T01:22:02;93886.94;;;23.14;22.27
65359;BME280;52491;45.900;6.346;2023-04-06T01:24:27;93889.59;;;23.14;22.43
65359;BME280;52491;45.900;6.346;2023-04-06T01:26:53;93883.47;;;23.14;22.38
65359;BME280;52491;45.900;6.346;2023-04-06T01:29:18;93878.16;;;23.14;22.57
65359;BME280;52491;45.900;6.346;2023-04-06T01:31:44;93871.22;;;23.13;22.79
65359;BME280;52491;45.900;6.346;2023-04-06T01:34:10;93867.53;;;23.14;22.52
65359;BME280;52491;45.900;6.346;2023-04-06T01:36:36;93867.78;;;23.12;22.51
65359;BME280;52491;45.900;6.346;2023-04-06T01:39:01;93864.31;;;23.12;22.47
65359;BME280;52491;45.900;6.346;2023-04-06T01:41:27;93865.91;;;23.13;22.60
65359;BME280;52491;45.900;6.346;2023-04-06T01:43:53;93867.78;;;23.12;22.80
65359;BME280;52491;45.900;6.346;2023-04-06T01:46:20;93867.53;;;23.14;22.55
65359;BME280;52491;45.900;6.346;2023-04-06T01:48:45;93865.91;;;23.13;22.68
65359;BME280;52491;45.900;6.346;2023-04-06T01:51:11;93865.91;;;23.13;22.66
65359;BME280;52491;45.900;6.346;2023-04-06T01:53:36;93862.72;;;23.11;22.61
65359;BME280;52491;45.900;6.346;2023-04-06T01:56:02;93871.22;;;23.13;22.58
65359;BME280;52491;45.900;6.346;2023-04-06T01:58:28;93865.09;;;23.12;22.50
65359;BME280;52491;45.900;6.346;2023-04-06T02:00:53;93856.06;;;23.13;22.55
65359;BME280;52491;45.900;6.346;2023-04-06T02:03:19;93863.25;;;23.13;22.55
65359;BME280;52491;45.900;6.346;2023-04-06T02:05:45;93858.72;;;23.13;22.45
65359;BME280;52491;45.900;6.346;2023-04-06T02:08:10;93861.38;;;23.13;22.56
65359;BME280;52491;45.900;6.346;2023-04-06T02:10:36;93867.53;;;23.14;22.49
65359;BME280;52491;45.900;6.346;2023-04-06T02:13:02;93870.19;;;23.14;22.63
65359;BME280;52491;45.900;6.346;2023-04-06T02:15:27;93863.81;;;23.15;22.44
65359;BME280;52491;45.900;6.346;2023-04-06T02:17:53;93862.22;;;23.14;22.57
65359;BME280;52491;45.900;6.346;2023-04-06T02:20:19;93863.81;;;23.15;22.54
65359;BME280;52491;45.900;6.346;2023-04-06T02:22:45;93863.00;;;23.14;22.32
65359;BME280;52491;45.900;6.346;2023-04-06T02:25:10;93863.81;;;23.15;22.40
65359;BME280;52491;45.900;6.346;2023-04-06T02:27:37;93871.78;;;23.15;22.72
65359;BME280;52491;45.900;6.346;2023-04-06T02:30:03;93872.56;;;23.15;22.46
65359;BME280;52491;45.900;6.346;2023-04-06T02:32:29;93861.94;;;23.15;22.55
65359;BME280;52491;45.900;6.346;2023-04-06T02:34:54;93871.53;;;23.16;22.56
65359;BME280;52491;45.900;6.346;2023-04-06T02:37:20;93861.13;;;23.15;22.46
65359;BME280;52491;45.900;6.346;2023-04-06T02:39:46;93869.13;;;23.15;22.63
65359;BME280;52491;45.900;6.346;2023-04-06T02:42:12;93868.88;;;23.16;22.44
65359;BME280;52491;45.900;6.346;2023-04-06T02:44:37;93871.53;;;23.16;22.50
65359;BME280;52491;45.900;6.346;2023-04-06T02:47:03;93869.69;;;23.17;22.56
65359;BME280;52491;45.900;6.346;2023-04-06T02:49:29;93868.88;;;23.16;22.50
65359;BME280;52491;45.900;6.346;2023-04-06T02:51:54;93869.69;;;23.17;22.51
65359;BME280;52491;45.900;6.346;2023-04-06T02:54:20;93872.34;;;23.17;22.60
65359;BME280;52491;45.900;6.346;2023-04-06T02:56:45;93865.94;;;23.18;22.46
65359;BME280;52491;45.900;6.346;2023-04-06T02:59:11;93863.28;;;23.18;22.49
65359;BME280;52491;45.900;6.346;2023-04-06T03:01:36;93854.50;;;23.17;22.21
65359;BME280;52491;45.900;6.346;2023-04-06T03:04:02;93863.03;;;23.19;22.43
65359;BME280;52491;45.900;6.346;2023-04-06T03:06:28;93863.03;;;23.19;22.39
65359;BME280;52491;45.900;6.346;2023-04-06T03:08:54;93859.56;;;23.19;22.39
65359;BME280;52491;45.900;6.346;2023-04-06T03:11:19;93862.22;;;23.19;22.42
65359;BME280;52491;45.900;6.346;2023-04-06T03:13:45;93858.75;;;23.18;22.43
65359;BME280;52491;45.900;6.346;2023-04-06T03:16:11;93854.78;;;23.21;22.54
65359;BME280;52491;45.900;6.346;2023-04-06T03:18:37;93852.13;;;23.21;22.38
65359;BME280;52491;45.900;6.346;2023-04-06T03:21:02;93852.69;;;23.23;22.43
65359;BME280;52491;45.900;6.346;2023-04-06T03:23:28;93853.75;;;23.22;22.24
65359;BME280;52491;45.900;6.346;2023-04-06T03:25:53;93854.56;;;23.22;22.46
65359;BME280;52491;45.900;6.346;2023-04-06T03:28:19;93853.75;;;23.22;22.30
65359;BME280;52491;45.900;6.346;2023-04-06T03:30:45;93854.56;;;23.22;22.41
65359;BME280;52491;45.900;6.346;2023-04-06T03:33:11;93859.09;;;23.22;22.41
65359;BME280;52491;45.900;6.346;2023-04-06T03:35:37;93858.25;;;23.21;22.38
65359;BME280;52491;45.900;6.346;2023-04-06T03:38:03;93852.69;;;23.23;22.70
65359;BME280;52491;45.900;6.346;2023-04-06T03:40:30;93851.63;;;23.24;22.24
65359;BME280;52491;45.900;6.346;2023-04-06T03:42:56;93860.41;;;23.24;22.52
65359;BME280;52491;45.900;6.346;2023-04-06T03:45:22;93854.28;;;23.24;22.42
65359;BME280;52491;45.900;6.346;2023-04-06T03:47:48;93855.06;;;23.24;22.37
65359;BME280;52491;45.900;6.346;2023-04-06T03:50:13;93853.25;;;23.25;22.38
65359;BME280;52491;45.900;6.346;2023-04-06T03:52:39;93855.91;;;23.25;22.33
65359;BME280;52491;45.900;6.346;2023-04-06T03:55:05;93860.16;;;23.26;22.47
65359;BME280;52491;45.900;6.346;2023-04-06T03:57:31;93855.63;;;23.27;22.43
65359;BME280;52491;45.900;6.346;2023-04-06T03:59:56;93861.75;;;23.27;22.26
65359;BME280;52491;45.900;6.346;2023-04-06T04:02:22;93863.38;;;23.28;22.37
65359;BME280;52491;45.900;6.346;2023-04-06T04:04:47;93861.50;;;23.29;22.42
65359;BME280;52491;45.900;6.346;2023-04-06T04:07:13;93869.50;;;23.29;22.32
65359;BME280;52491;45.900;6.346;2023-04-06T04:09:39;93863.09;;;23.30;22.35
65359;BME280;52491;45.900;6.346;2023-04-06T04:12:05;93867.38;;;23.31;22.29
65359;BME280;52491;45.900;6.346;2023-04-06T04:14:31;93865.53;;;23.31;22.20
65359;BME280;52491;45.900;6.346;2023-04-06T04:16:56;93872.69;;;23.31;22.39
65359;BME280;52491;45.900;6.346;2023-04-06T04:19:22;93868.19;;;23.31;22.25
65359;BME280;52491;45.900;6.346;2023-04-06T04:21:48;93867.38;;;23.31;22.40
65359;BME280;52491;45.900;6.346;2023-04-06T04:24:13;93868.19;;;23.31;22.34
65359;BME280;52491;45.900;6.346;2023-04-06T04:26:39;93874.28;;;23.32;22.28
65359;BME280;52491;45.900;6.346;2023-04-06T04:29:06;93878.81;;;23.31;22.28
65359;BME280;52491;45.900;6.346;2023-04-06T04:31:32;93876.94;;;23.32;22.62
65359;BME280;52491;45.900;6.346;2023-04-06T04:33:59;93882.03;;;23.33;22.46
65359;BME280;52491;45.900;6.346;2023-04-06T04:36:25;93882.03;;;23.33;22.25
65359;BME280;52491;45.900;6.346;2023-04-06T04:38:54;93881.75;;;23.35;22.23
65359;BME280;52491;45.900;6.346;2023-04-06T04:41:20;93887.34;;;23.33;22.36
65359;BME280;52491;45.900;6.346;2023-04-06T04:43:45;93877.50;;;23.34;22.28
65359;BME280;52491;45.900;6.346;2023-04-06T04:46:11;93882.03;;;23.33;22.80
65359;BME280;52491;45.900;6.346;2023-04-06T04:48:37;93874.06;;;23.33;22.78
65359;BME280;52491;45.900;6.346;2023-04-06T04:51:04;93882.81;;;23.34;22.88
65359;BME280;52491;45.900;6.346;2023-04-06T04:53:29;93887.09;;;23.35;22.85
65359;BME280;52491;45.900;6.346;2023-04-06T04:55:55;93889.75;;;23.35;22.98
65359;BME280;52491;45.900;6.346;2023-04-06T04:58:20;93893.19;;;23.35;22.92
65359;BME280;52491;45.900;6.346;2023-04-06T05:00:46;93893.19;;;23.35;23.06
65359;BME280;52491;45.900;6.346;2023-04-06T05:03:18;93898.53;;;23.35;23.07
65359;BME280;52491;45.900;6.346;2023-04-06T05:05:45;93896.69;;;23.36;23.18
65359;BME280;52491;45.900;6.346;2023-04-06T05:08:12;93902.00;;;23.36;23.13
65359;BME280;52491;45.900;6.346;2023-04-06T05:10:40;93901.72;;;23.37;23.64
65359;BME280;52491;45.900;6.346;2023-04-06T05:13:07;93899.88;;;23.38;23.55
65359;BME280;52491;45.900;6.346;2023-04-06T05:15:33;93906.81;;;23.39;23.68
65359;BME280;52491;45.900;6.346;2023-04-06T05:18:04;93905.75;;;23.40;23.82
65359;BME280;52491;45.900;6.346;2023-04-06T05:20:32;93909.19;;;23.40;23.52
65359;BME280;52491;45.900;6.346;2023-04-06T05:22:59;93907.31;;;23.36;23.84
65359;BME280;52491;45.900;6.346;2023-04-06T05:25:25;93912.13;;;23.39;23.69
65359;BME280;52491;45.900;6.346;2023-04-06T05:27:51;93918.25;;;23.39;23.86
65359;BME280;52491;45.900;6.346;2023-04-06T05:30:16;93920.63;;;23.41;23.34
65359;BME280;52491;45.900;6.346;2023-04-06T05:32:42;93921.47;;;23.41;23.52
65359;BME280;52491;45.900;6.346;2023-04-06T05:35:09;93918.81;;;23.41;23.47
65359;BME280;52491;45.900;6.346;2023-04-06T05:37:35;93915.31;;;23.41;23.41
65359;BME280;52491;45.900;6.346;2023-04-06T05:40:01;93922.50;;;23.40;23.18
65359;BME280;52491;45.900;6.346;2023-04-06T05:42:27;93910.28;;;23.39;23.49
65359;BME280;52491;45.900;6.346;2023-04-06T05:44:53;93913.47;;;23.41;23.51
65359;BME280;52491;45.900;6.346;2023-04-06T05:47:19;93915.31;;;23.41;23.65
65359;BME280;52491;45.900;6.346;2023-04-06T05:49:46;93922.25;;;23.42;23.63
65359;BME280;52491;45.900;6.346;2023-04-06T05:52:11;93925.72;;;23.42;23.65
65359;BME280;52491;45.900;6.346;2023-04-06T05:54:37;93929.19;;;23.43;23.74
65359;BME280;52491;45.900;6.346;2023-04-06T05:57:03;93931.03;;;23.42;23.67
65359;BME280;52491;45.900;6.346;2023-04-06T05:59:32;93924.91;;;23.42;23.75
65359;BME280;52491;45.900;6.346;2023-04-06T06:01:57;93930.25;;;23.42;23.65
65359;BME280;52491;45.900;6.346;2023-04-06T06:04:23;93929.19;;;23.43;23.72
65359;BME280;52491;45.900;6.346;2023-04-06T06:06:49;93929.97;;;23.43;23.60
65359;BME280;52491;45.900;6.346;2023-04-06T06:09:16;93924.66;;;23.43;23.91
65359;BME280;52491;45.900;6.346;2023-04-06T06:11:41;93936.09;;;23.44;23.78
65359;BME280;52491;45.900;6.346;2023-04-06T06:14:07;93929.97;;;23.43;23.61
65359;BME280;52491;45.900;6.346;2023-04-06T06:16:33;93931.59;;;23.44;23.80
65359;BME280;52491;45.900;6.346;2023-04-06T06:18:59;93922.53;;;23.45;23.66
65359;BME280;52491;45.900;6.346;2023-04-06T06:21:25;93927.06;;;23.45;23.75
65359;BME280;52491;45.900;6.346;2023-04-06T06:23:51;93912.97;;;23.44;23.71
65359;BME280;52491;45.900;6.346;2023-04-06T06:26:16;93917.22;;;23.45;23.82
65359;BME280;52491;45.900;6.346;2023-04-06T06:28:42;93920.69;;;23.46;23.79
65359;BME280;52491;45.900;6.346;2023-04-06T06:31:08;93924.97;;;23.47;23.67
65359;BME280;52491;45.900;6.346;2023-04-06T06:33:33;93926.00;;;23.46;23.83
65359;BME280;52491;45.900;6.346;2023-04-06T06:35:59;93925.75;;;23.48;23.73
65359;BME280;52491;45.900;6.346;2023-04-06T06:38:25;93922.31;;;23.47;23.79
65359;BME280;52491;45.900;6.346;2023-04-06T06:40:51;93928.66;;;23.46;23.82
65359;BME280;52491;45.900;6.346;2023-04-06T06:43:16;93936.41;;;23.48;23.70
65359;BME280;52491;45.900;6.346;2023-04-06T06:45:42;93923.09;;;23.48;23.66
65359;BME280;52491;45.900;6.346;2023-04-06T06:48:07;93927.34;;;23.49;23.47
65359;BME280;52491;45.900;6.346;2023-04-06T06:50:33;93920.44;;;23.48;23.59
65359;BME280;52491;45.900;6.346;2023-04-06T06:52:59;93919.66;;;23.47;23.51
65359;BME280;52491;45.900;6.346;2023-04-06T06:55:24;93913.25;;;23.48;23.61
65359;BME280;52491;45.900;6.346;2023-04-06T06:57:52;93910.59;;;23.48;23.50
65359;BME280;52491;45.900;6.346;2023-04-06T07:00:19;93912.19;;;23.49;23.54
65359;BME280;52491;45.900;6.346;2023-04-06T07:02:48;93916.72;;;23.49;23.58
65359;BME280;52491;45.900;6.346;2023-04-06T07:05:15;93906.88;;;23.49;23.56
65359;BME280;52491;45.900;6.346;2023-04-06T07:07:40;93900.75;;;23.49;23.67
65359;BME280;52491;45.900;6.346;2023-04-06T07:10:07;93907.94;;;23.48;23.73
65359;BME280;52491;45.900;6.346;2023-04-06T07:12:33;93906.06;;;23.49;23.63
65359;BME280;52491;45.900;6.346;2023-04-06T07:14:58;93906.06;;;23.49;23.50
65359;BME280;52491;45.900;6.346;2023-04-06T07:17:24;93909.78;;;23.48;23.67
65359;BME280;52491;45.900;6.346;2023-04-06T07:19:50;93911.94;;;23.51;23.67
65359;BME280;52491;45.900;6.346;2023-04-06T07:22:15;93910.88;;;23.52;23.63
65359;BME280;52491;45.900;6.346;2023-04-06T07:24:41;93910.03;;;23.46;23.73
65359;BME280;52491;45.900;6.346;2023-04-06T07:27:06;93905.22;;;23.43;23.77
65359;BME280;52491;45.900;6.346;2023-04-06T07:29:32;93908.16;;;23.41;23.85
65359;BME280;52491;45.900;6.346;2023-04-06T07:31:58;93904.19;;;23.49;23.71
65359;BME280;52491;45.900;6.346;2023-04-06T07:34:23;93906.63;;;23.51;23.77
65359;BME280;52491;45.900;6.346;2023-04-06T07:36:49;93908.22;;;23.52;23.93
65359;BME280;52491;45.900;6.346;2023-04-06T07:39:15;93906.09;;;23.54;23.63
65359;BME280;52491;45.900;6.346;2023-04-06T07:41:41;93905.31;;;23.53;23.62
65359;BME280;52491;45.900;6.346;2023-04-06T07:44:06;93903.44;;;23.54;23.80
65359;BME280;52491;45.900;6.346;2023-04-06T07:46:32;93906.34;;;23.52;23.59
65359;BME280;52491;45.900;6.346;2023-04-06T07:48:59;93898.13;;;23.54;23.87
65359;BME280;52491;45.900;6.346;2023-04-06T07:51:25;93903.44;;;23.54;23.69
65359;BME280;52491;45.900;6.346;2023-04-06T07:53:51;93906.34;;;23.47;23.81
65359;BME280;52491;45.900;6.346;2023-04-06T07:56:17;93906.63;;;23.51;23.74
65359;BME280;52491;45.900;6.346;2023-04-06T07:58:43;93905.56;;;23.52;23.68
65359;BME280;52491;45.900;6.346;2023-04-06T08:01:09;93904.50;;;23.53;23.80
65359;BME280;52491;45.900;6.346;2023-04-06T08:03:35;93905.03;;;23.55;23.97
65359;BME280;52491;45.900;6.346;2023-04-06T08:06:02;93904.25;;;23.54;23.82
65359;BME280;52491;45.900;6.346;2023-04-06T08:08:28;93905.84;;;23.55;23.82
65359;BME280;52491;45.900;6.346;2023-04-06T08:10:53;93910.34;;;23.55;23.82
65359;BME280;52491;45.900;6.346;2023-04-06T08:13:19;93902.38;;;23.55;23.93
65359;BME280;52491;45.900;6.346;2023-04-06T08:15:45;93904.25;;;23.54;23.98
65359;BME280;52491;45.900;6.346;2023-04-06T08:18:11;93905.84;;;23.55;23.85
65359;BME280;52491;45.900;6.346;2023-04-06T08:20:37;93906.66;;;23.56;23.97
65359;BME280;52491;45.900;6.346;2023-04-06T08:23:02;93904.78;;;23.56;23.45
65359;BME280;52491;45.900;6.346;2023-04-06T08:25:28;93893.88;;;23.58;23.95
65359;BME280;52491;45.900;6.346;2023-04-06T08:27:54;93900.81;;;23.59;23.96
65359;BME280;52491;45.900;6.346;2023-04-06T08:30:20;93897.09;;;23.60;23.90
65359;BME280;52491;45.900;6.346;2023-04-06T08:32:46;93897.09;;;23.60;23.90
65359;BME280;52491;45.900;6.346;2023-04-06T08:35:11;93905.06;;;23.60;23.87
65359;BME280;52491;45.900;6.346;2023-04-06T08:37:37;93894.44;;;23.60;23.92
65359;BME280;52491;45.900;6.346;2023-04-06T08:40:04;93889.91;;;23.60;24.19
65359;BME280;52491;45.900;6.346;2023-04-06T08:42:32;93881.41;;;23.63;23.88
65359;BME280;52491;45.900;6.346;2023-04-06T08:44:59;93886.72;;;23.63;23.88
65359;BME280;52491;45.900;6.346;2023-04-06T08:47:25;93889.38;;;23.58;24.02
65359;BME280;52491;45.900;6.346;2023-04-06T08:49:53;93880.84;;;23.56;23.98
65359;BME280;52491;45.900;6.346;2023-04-06T08:52:19;93883.28;;;23.63;24.05
65359;BME280;52491;45.900;6.346;2023-04-06T08:54:45;93892.03;;;23.63;24.00
65359;BME280;52491;45.900;6.346;2023-04-06T08:57:11;93882.44;;;23.57;24.03
65359;BME280;52491;45.900;6.346;2023-04-06T08:59:38;93890.41;;;23.57;24.19
65359;BME280;52491;45.900;6.346;2023-04-06T09:02:04;93883.81;;;23.65;24.12
65359;BME280;52491;45.900;6.346;2023-04-06T09:04:33;93888.06;;;23.66;23.82
65359;BME280;52491;45.900;6.346;2023-04-06T09:07:00;93888.06;;;23.66;23.94
65359;BME280;52491;45.900;6.346;2023-04-06T09:09:26;93884.38;;;23.67;23.95
65359;BME280;52491;45.900;6.346;2023-04-06T09:11:51;93881.72;;;23.67;24.10
65359;BME280;52491;45.900;6.346;2023-04-06T09:14:36;93879.56;;;23.69;23.93
65359;BME280;52491;45.900;6.346;2023-04-06T09:17:02;93877.19;;;23.67;23.96
65359;BME280;52491;45.900;6.346;2023-04-06T09:19:28;93875.06;;;23.70;23.93
65359;BME280;52491;45.900;6.346;2023-04-06T09:22:04;93872.66;;;23.68;24.24
65359;BME280;52491;45.900;6.346;2023-04-06T09:24:50;93870.78;;;23.68;24.05
65359;BME280;52491;45.900;6.346;2023-04-06T09:27:16;93876.38;;;23.67;24.06
65359;BME280;52491;45.900;6.346;2023-04-06T09:29:43;93866.53;;;23.67;24.11
65359;BME280;52491;45.900;6.346;2023-04-06T09:32:11;93873.44;;;23.68;24.00
65359;BME280;52491;45.900;6.346;2023-04-06T09:34:39;93870.00;;;23.68;23.98
65359;BME280;52491;45.900;6.346;2023-04-06T09:37:18;93867.09;;;23.70;24.11
65359;BME280;52491;45.900;6.346;2023-04-06T09:39:45;93865.22;;;23.70;24.06
65359;BME280;52491;45.900;6.346;2023-04-06T09:42:31;93867.88;;;23.70;24.12
65359;BME280;52491;45.900;6.346;2023-04-06T09:44:56;93868.94;;;23.69;23.99
65359;BME280;52491;45.900;6.346;2023-04-06T09:47:22;93866.25;;;23.69;24.21
65359;BME280;52491;45.900;6.346;2023-04-06T09:49:50;93864.44;;;23.70;24.20
65359;BME280;52491;45.900;6.346;2023-04-06T09:52:19;93866.03;;;23.71;24.25
65359;BME280;52491;45.900;6.346;2023-04-06T09:54:48;93862.31;;;23.72;24.22
65359;BME280;52491;45.900;6.346;2023-04-06T10:00:08;93854.88;;;23.74;24.21
65359;BME280;52491;45.900;6.346;2023-04-06T10:02:45;93843.16;;;23.75;24.03
65359;BME280;52491;45.900;6.346;2023-04-06T10:05:55;93852.22;;;23.74;24.15
65359;BME280;52491;45.900;6.346;2023-04-06T10:08:27;93845.03;;;23.74;24.13
65359;BME280;52491;45.900;6.346;2023-04-06T10:10:56;93839.72;;;23.74;24.20
65359;BME280;52491;45.900;6.346;2023-04-06T10:13:23;93837.31;;;23.73;24.32
65359;BME280;52491;45.900;6.346;2023-04-06T10:15:51;93846.91;;;23.74;24.26
65359;BME280;52491;45.900;6.346;2023-04-06T10:18:17;93835.69;;;23.72;24.61
65359;BME280;52491;45.900;6.346;2023-04-06T10:20:49;93839.72;;;23.74;24.13
65359;BME280;52491;45.900;6.346;2023-04-06T10:23:40;93835.47;;;23.73;24.25
65359;BME280;52491;45.900;6.346;2023-04-06T10:26:13;93833.03;;;23.72;24.33
65359;BME280;52491;45.900;6.346;2023-04-06T10:28:41;93840.78;;;23.73;24.26
65359;BME280;52491;45.900;6.346;2023-04-06T10:31:07;93839.72;;;23.74;24.37
65359;BME280;52491;45.900;6.346;2023-04-06T10:33:33;93839.72;;;23.74;24.49
65359;BME280;52491;45.900;6.346;2023-04-06T10:36:15;93836.00;;;23.75;24.22
65359;BME280;52491;45.900;6.346;2023-04-06T10:38:41;93839.19;;;23.77;24.31
65359;BME280;52491;45.900;6.346;2023-04-06T10:41:12;93837.88;;;23.80;24.31
65359;BME280;52491;45.900;6.346;2023-04-06T10:43:39;93840.28;;;23.81;24.46
65359;BME280;52491;45.900;6.346;2023-04-06T10:46:06;93836.81;;;23.81;24.35
65359;BME280;52491;45.900;6.346;2023-04-06T10:48:43;93837.63;;;23.81;24.35
65359;BME280;52491;45.900;6.346;2023-04-06T10:51:13;93834.16;;;23.81;24.34
65359;BME280;52491;45.900;6.346;2023-04-06T10:53:42;93830.69;;;23.80;24.28
65359;BME280;52491;45.900;6.346;2023-04-06T10:56:10;93831.50;;;23.81;24.21
65359;BME280;52491;45.900;6.346;2023-04-06T10:58:44;93836.28;;;23.79;23.90
65359;BME280;52491;45.900;6.346;2023-04-06T11:01:11;93840.25;;;23.76;24.08
65359;BME280;52491;45.900;6.346;2023-04-06T11:03:48;93839.75;;;23.79;24.01
65359;BME280;52491;45.900;6.346;2023-04-06T11:06:29;93838.94;;;23.79;24.33
65359;BME280;52491;45.900;6.346;2023-04-06T11:08:57;93833.88;;;23.77;24.33
65359;BME280;52491;45.900;6.346;2023-04-06T11:11:25;93839.75;;;23.79;24.70
65359;BME280;52491;45.900;6.346;2023-04-06T11:13:53;93829.59;;;23.76;24.72
65359;BME280;52491;45.900;6.346;2023-04-06T11:16:24;93824.84;;;23.78;24.75
65359;BME280;52491;45.900;6.346;2023-04-06T11:19:00;93826.44;;;23.79;24.75
65359;BME280;52491;45.900;6.346;2023-04-06T11:21:46;93826.44;;;23.79;24.99
65359;BME280;52491;45.900;6.346;2023-04-06T11:24:24;93825.63;;;23.79;25.32
65359;BME280;52491;45.900;6.346;2023-04-06T11:26:58;93824.00;;;23.78;25.11
65359;BME280;52491;45.900;6.346;2023-04-06T11:29:31;93819.50;;;23.78;25.49
65359;BME280;52491;45.900;6.346;2023-04-06T11:32:06;93823.22;;;23.77;25.52
65359;BME280;52491;45.900;6.346;2023-04-06T11:34:38;93819.50;;;23.78;25.41
65359;BME280;52491;45.900;6.346;2023-04-06T11:37:11;93822.19;;;23.78;25.65
65359;BME280;52491;45.900;6.346;2023-04-06T11:39:52;93821.09;;;23.79;25.57
65359;BME280;52491;45.900;6.346;2023-04-06T11:42:28;93822.97;;;23.79;25.72
65359;BME280;52491;45.900;6.346;2023-04-06T11:44:56;93826.19;;;23.81;25.81
65359;BME280;52491;45.900;6.346;2023-04-06T11:47:36;93820.56;;;23.82;25.69
65359;BME280;52491;45.900;6.346;2023-04-06T11:50:11;93812.59;;;23.82;25.58
65359;BME280;52491;45.900;6.346;2023-04-06T11:52:39;93816.06;;;23.83;25.70
65359;BME280;52491;45.900;6.346;2023-04-06T11:55:13;93807.03;;;23.84;25.59
65359;BME280;52491;45.900;6.346;2023-04-06T11:57:41;93805.16;;;23.84;25.84
65359;BME280;52491;45.900;6.346;2023-04-06T12:00:10;93816.34;;;23.86;25.76
65359;BME280;52491;45.900;6.346;2023-04-06T12:02:40;93828.59;;;23.87;25.70
65359;BME280;52491;45.900;6.346;2023-04-06T12:05:11;93811.53;;;23.88;25.74
65359;BME280;52491;45.900;6.346;2023-04-06T12:07:36;93810.50;;;23.89;25.56
65359;BME280;52491;45.900;6.346;2023-04-06T12:10:02;93816.63;;;23.90;25.23
65359;BME280;52491;45.900;6.346;2023-04-06T12:12:28;93817.41;;;23.90;25.38
65359;BME280;52491;45.900;6.346;2023-04-06T12:14:55;93820.88;;;23.91;25.06
65359;BME280;52491;45.900;6.346;2023-04-06T12:17:21;93807.31;;;23.93;25.07
65359;BME280;52491;45.900;6.346;2023-04-06T12:19:47;93813.69;;;23.92;25.17
65359;BME280;52491;45.900;6.346;2023-04-06T12:22:12;93816.09;;;23.93;25.26
65359;BME280;52491;45.900;6.346;2023-04-06T12:24:38;93812.63;;;23.93;25.39
65359;BME280;52491;45.900;6.346;2023-04-06T12:27:04;93812.63;;;23.93;25.18
65359;BME280;52491;45.900;6.346;2023-04-06T12:29:29;93820.63;;;23.93;25.27
65359;BME280;52491;45.900;6.346;2023-04-06T12:31:55;93833.94;;;23.93;25.18
65359;BME280;52491;45.900;6.346;2023-04-06T12:34:21;93829.41;;;23.93;25.21
65359;BME280;52491;45.900;6.346;2023-04-06T12:36:47;93842.47;;;23.95;25.25
65359;BME280;52491;45.900;6.346;2023-04-06T12:39:12;93834.50;;;23.95;24.26
65359;BME280;52491;45.900;6.346;2023-04-06T12:41:38;93828.88;;;23.96;24.17
65359;BME280;52491;45.900;6.346;2023-04-06T12:44:06;93832.34;;;23.97;23.49
65359;BME280;52491;45.900;6.346;2023-04-06T12:46:32;93835.00;;;23.97;23.10
65359;BME280;52491;45.900;6.346;2023-04-06T12:48:58;93831.56;;;23.96;23.02
65359;BME280;52491;45.900;6.346;2023-04-06T12:51:27;93832.34;;;23.97;22.47
65359;BME280;52491;45.900;6.346;2023-04-06T12:53:53;93834.50;;;23.95;22.10
65359;BME280;52491;45.900;6.346;2023-04-06T12:56:18;93843.53;;;23.94;22.58
65359;BME280;52491;45.900;6.346;2023-04-06T12:58:45;93842.72;;;23.93;21.83
65359;BME280;52491;45.900;6.346;2023-04-06T13:01:10;93849.13;;;23.92;21.86
65359;BME280;52491;45.900;6.346;2023-04-06T13:03:43;93836.59;;;23.93;21.31